Millenium Air

Millenium Air Since 1998



 METAR AND TAF INFORMATION
METAR FOR EGPF
ADDS - METARS form results

(0648 UTC 18 April 2021)
Data provider http://aviationweather.gov/metar/data/
 
METAR text: EGPF 180620Z AUTO 04005KT 8000 -RA NCD 05/03 Q1024
Conditions at: EGPF (GLASGOW AIRPORT , GB) observed 0620 UTC 18 April 2021
Temperature: 5.0°C (41°F)
Dewpoint: 3.0°C (37°F) [RH = 87%]
Pressure (altimeter): 30.24 inches Hg (1024.0 mb)
Winds: from the NE (40 degrees) at 6 MPH (5 knots; 2.6 m/s)
Visibility: 5 miles ( 8 km)
Ceiling: at least 12,000 feet AGL
Clouds: sky clear below 12,000 feet AGL
Weather: -RA  (light rain)

METAR text: EGPF 180550Z AUTO 05005KT 8000 -RA //////TCU 05/03 Q1024
Conditions at: EGPF (GLASGOW AIRPORT , GB) observed 0550 UTC 18 April 2021
Temperature: 5.0°C (41°F)
Dewpoint: 3.0°C (37°F) [RH = 87%]
Pressure (altimeter): 30.24 inches Hg (1024.0 mb)
Winds: from the NE (50 degrees) at 6 MPH (5 knots; 2.6 m/s)
Visibility: 5 miles ( 8 km)
Ceiling: unknown
Clouds: missing
Weather: -RA  (light rain)

Forecast for: EGPF (GLASGOW AIRPORT , GB)
Text: TAF EGPF 180455Z 1806/1906 16004KT 9999 SCT020
Forecast period: 0600 UTC 18 April 2021 to 0600 UTC 19 April 2021
Forecast type: FROM: standard forecast or significant change
Winds: from the SSE (160 degrees) at 5 MPH (4 knots; 2.1 m/s)
Visibility: 6 or more miles (10+ km)
Ceiling: at least 12,000 feet AGL
Clouds: scattered clouds at 2000 feet AGL
Weather: no significant weather forecast for this period
Text: PROB40
Forecast period: 0600 UTC 18 April 2021 to 0000 UTC 19 April 2021
Forecast type: TEMPORARY: The following changes expected for less than half the time period
Visibility: 3 miles (5 km)
Ceiling: 1200 feet AGL
Clouds: broken clouds at 1200 feet AGL
Weather: -RA -DZ  (light rain, light drizzle)

 AIRPORT MAP

 RUNWAY INFORMATION
Runway 05 Runway length 8720 ft Runway width 151 ft
Runway elevation 26 ft Runway displaced threshold 0 ft Runway heading 46
Runway 23 Runway length 8720 ft Runway width 151 ft
Runway elevation 21 ft Runway displaced threshold 980 ft Runway heading 226
Runway 09 Runway length 3622 ft Runway width 151 ft
Runway elevation 17 ft Runway displaced threshold 203 ft Runway heading 91
Runway 27 Runway length 3622 ft Runway width 151 ft
Runway elevation 23 ft Runway displaced threshold 0 ft Runway heading 271

 AIRPORT FREQUENCIES
Type ACC Name SHANWICK O Frequency 120.35 MHZ
Type APP Name APP Frequency 119.1 MHZ
Type ATIS Name ATIS Frequency 129.575 MHZ
Type GND Name GND Frequency 121.7 MHZ
Type TWR Name TWR Frequency 118.8 MHZ

 AIRPORT NEAR NAVIGATION AIDS
Type NDB Name Glasgow Frequency 331 KHZ
Type VOR-DME Name Glasgow Frequency 115400 KHZ